Time,TemperatureF,DewpointF,PressureIn,WindDirection,WindDirectionDegrees,WindSpeedMPH,WindSpeedGustMPH,Humidity,HourlyPrecipIn,Conditions,Clouds,dailyrainin,SoftwareType,DateUTC
2013-06-23 00:00:00,62.4,60.0,30.18,SE,125,0.0,15.0,92,0.00,,,0.00,Wunderground v.1.15,2013-06-23 04:00:00,
2013-06-23 00:05:00,62.3,59.9,30.17,SE,125,0.0,15.0,92,0.00,,,0.00,Wunderground v.1.15,2013-06-23 04:05:00,
2013-06-23 00:10:00,62.2,59.8,30.17,SE,127,0.0,15.0,92,0.00,,,0.00,Wunderground v.1.15,2013-06-23 04:10:00,
2013-06-23 00:15:00,62.2,60.2,30.17,SE,127,0.0,15.0,93,0.00,,,0.00,Wunderground v.1.15,2013-06-23 04:15:00,
2013-06-23 00:20:00,62.1,60.1,30.17,SE,127,0.0,15.0,93,0.00,,,0.00,Wunderground v.1.15,2013-06-23 04:20:00,
2013-06-23 00:25:00,62.1,60.1,30.17,SE,127,0.0,15.0,93,0.00,,,0.00,Wunderground v.1.15,2013-06-23 04:25:00,
2013-06-23 00:30:00,62.0,60.0,30.18,SE,127,0.0,15.0,93,0.00,,,0.00,Wunderground v.1.15,2013-06-23 04:30:00,
2013-06-23 00:40:00,61.8,59.8,30.18,SE,127,0.0,15.0,93,0.00,,,0.00,Wunderground v.1.15,2013-06-23 04:40:00,
2013-06-23 00:50:00,61.8,59.8,30.17,SE,127,0.0,15.0,93,0.00,,,0.00,Wunderground v.1.15,2013-06-23 04:50:00,
2013-06-23 01:00:00,61.6,59.9,30.17,SE,127,0.0,15.0,94,0.00,,,0.00,Wunderground v.1.15,2013-06-23 05:00:00,
2013-06-23 01:10:00,61.5,59.8,30.17,SE,127,0.0,15.0,94,0.00,,,0.00,Wunderground v.1.15,2013-06-23 05:10:00,
2013-06-23 01:15:00,61.4,59.7,30.17,SE,127,0.0,15.0,94,0.00,,,0.00,Wunderground v.1.15,2013-06-23 05:15:00,
2013-06-23 01:20:00,61.4,59.7,30.17,SE,127,0.0,15.0,94,0.00,,,0.00,Wunderground v.1.15,2013-06-23 05:20:00,
2013-06-23 01:30:00,61.3,59.6,30.17,SE,127,0.0,15.0,94,0.00,,,0.00,Wunderground v.1.15,2013-06-23 05:30:00,
2013-06-23 01:40:00,61.2,59.8,30.17,SE,127,0.0,15.0,95,0.00,,,0.00,Wunderground v.1.15,2013-06-23 05:40:00,
2013-06-23 01:50:00,61.1,59.7,30.17,SE,127,0.0,15.0,95,0.00,,,0.00,Wunderground v.1.15,2013-06-23 05:50:00,
2013-06-23 02:00:00,61.1,59.7,30.17,SE,127,0.0,15.0,95,0.00,,,0.00,Wunderground v.1.15,2013-06-23 06:00:00,
2013-06-23 02:10:00,61.1,59.7,30.16,SE,127,0.0,15.0,95,0.00,,,0.00,Wunderground v.1.15,2013-06-23 06:10:00,
2013-06-23 02:15:00,61.1,59.7,30.16,SE,127,0.0,15.0,95,0.00,,,0.00,Wunderground v.1.15,2013-06-23 06:15:00,
2013-06-23 02:20:00,61.1,59.7,30.16,SE,127,0.0,15.0,95,0.00,,,0.00,Wunderground v.1.15,2013-06-23 06:20:00,
2013-06-23 02:25:00,60.9,59.5,30.16,SE,127,0.0,15.0,95,0.00,,,0.00,Wunderground v.1.15,2013-06-23 06:25:00,
2013-06-23 02:30:00,60.9,59.5,30.16,SE,127,0.0,15.0,95,0.00,,,0.00,Wunderground v.1.15,2013-06-23 06:30:00,
2013-06-23 02:35:00,60.8,59.4,30.16,SE,127,0.0,15.0,95,0.00,,,0.00,Wunderground v.1.15,2013-06-23 06:35:00,
2013-06-23 02:45:00,60.8,59.7,30.15,SE,127,0.0,15.0,96,0.00,,,0.00,Wunderground v.1.15,2013-06-23 06:45:00,
2013-06-23 02:55:00,60.7,59.6,30.15,SE,127,0.0,15.0,96,0.00,,,0.00,Wunderground v.1.15,2013-06-23 06:55:00,
2013-06-23 03:00:00,60.7,59.6,30.15,SE,127,0.0,15.0,96,0.00,,,0.00,Wunderground v.1.15,2013-06-23 07:00:00,
2013-06-23 03:10:00,60.6,59.5,30.15,SE,127,0.0,15.0,96,0.00,,,0.00,Wunderground v.1.15,2013-06-23 07:10:00,
2013-06-23 03:20:00,60.6,59.5,30.14,SE,127,0.0,15.0,96,0.00,,,0.00,Wunderground v.1.15,2013-06-23 07:20:00,
2013-06-23 03:30:00,60.6,59.5,30.14,SE,127,0.0,15.0,96,0.00,,,0.00,Wunderground v.1.15,2013-06-23 07:30:00,
2013-06-23 03:40:00,60.5,59.4,30.14,SE,127,0.0,15.0,96,0.00,,,0.00,Wunderground v.1.15,2013-06-23 07:40:00,
2013-06-23 03:45:00,60.5,59.4,30.14,SE,127,0.0,15.0,96,0.00,,,0.00,Wunderground v.1.15,2013-06-23 07:45:00,
2013-06-23 03:55:00,60.4,59.3,30.14,SE,127,0.0,15.0,96,0.00,,,0.00,Wunderground v.1.15,2013-06-23 07:55:00,
2013-06-23 04:05:00,60.3,59.2,30.14,SE,127,0.0,15.0,96,0.00,,,0.00,Wunderground v.1.15,2013-06-23 08:05:00,
2013-06-23 04:10:00,60.2,59.1,30.14,SE,127,0.0,15.0,96,0.00,,,0.00,Wunderground v.1.15,2013-06-23 08:10:00,
2013-06-23 04:15:00,60.3,59.4,30.14,SE,127,0.0,15.0,97,0.00,,,0.00,Wunderground v.1.15,2013-06-23 08:15:00,
2013-06-23 04:25:00,60.4,59.5,30.14,SE,127,0.0,15.0,97,0.00,,,0.00,Wunderground v.1.15,2013-06-23 08:25:00,
2013-06-23 04:35:00,60.4,59.5,30.14,SE,127,0.0,15.0,97,0.00,,,0.00,Wunderground v.1.15,2013-06-23 08:35:00,
2013-06-23 04:40:00,60.3,59.4,30.14,SE,127,0.0,15.0,97,0.00,,,0.00,Wunderground v.1.15,2013-06-23 08:40:00,
2013-06-23 04:50:00,60.3,59.4,30.14,SE,127,0.0,15.0,97,0.00,,,0.00,Wunderground v.1.15,2013-06-23 08:50:00,
2013-06-23 05:00:00,60.3,59.4,30.14,SE,127,1.0,1.0,97,0.00,,,0.00,Wunderground v.1.15,2013-06-23 09:00:00,
2013-06-23 05:10:00,60.1,59.2,30.14,SE,128,0.0,15.0,97,0.00,,,0.00,Wunderground v.1.15,2013-06-23 09:10:00,
2013-06-23 05:15:00,60.1,59.2,30.14,SE,129,0.0,15.0,97,0.00,,,0.00,Wunderground v.1.15,2013-06-23 09:15:00,
2013-06-23 05:20:00,60.2,59.3,30.14,SE,129,0.0,15.0,97,0.00,,,0.00,Wunderground v.1.15,2013-06-23 09:20:00,
2013-06-23 05:30:00,60.1,59.2,30.14,SE,129,0.0,15.0,97,0.00,,,0.00,Wunderground v.1.15,2013-06-23 09:30:00,
2013-06-23 05:35:00,60.1,59.2,30.14,SE,128,0.0,15.0,97,0.00,,,0.00,Wunderground v.1.15,2013-06-23 09:35:00,
2013-06-23 05:45:00,60.3,59.4,30.14,SE,129,0.0,15.0,97,0.00,,,0.00,Wunderground v.1.15,2013-06-23 09:45:00,
2013-06-23 05:55:00,60.5,59.6,30.14,SE,129,0.0,15.0,97,0.00,,,0.00,Wunderground v.1.15,2013-06-23 09:55:00,
2013-06-23 06:05:00,60.8,59.9,30.14,SE,128,0.0,15.0,97,0.00,,,0.00,Wunderground v.1.15,2013-06-23 10:05:00,
2013-06-23 06:10:00,61.0,60.1,30.15,SE,131,0.0,15.0,97,0.00,,,0.00,Wunderground v.1.15,2013-06-23 10:10:00,
2013-06-23 06:20:00,61.8,60.9,30.15,SE,131,0.0,15.0,97,0.00,,,0.00,Wunderground v.1.15,2013-06-23 10:20:00,
2013-06-23 06:30:00,62.6,61.4,30.15,SE,131,0.0,15.0,96,0.00,,,0.00,Wunderground v.1.15,2013-06-23 10:30:00,
2013-06-23 06:40:00,63.2,61.4,30.15,SE,131,0.0,15.0,94,0.00,,,0.00,Wunderground v.1.15,2013-06-23 10:40:00,
2013-06-23 06:50:00,63.8,61.7,30.15,SE,131,0.0,15.0,93,0.00,,,0.00,Wunderground v.1.15,2013-06-23 10:50:00,
2013-06-23 06:55:00,64.1,61.7,30.15,SE,129,0.0,15.0,92,0.00,,,0.00,Wunderground v.1.15,2013-06-23 10:55:00,
2013-06-23 07:05:00,64.9,62.2,30.15,East,98,1.0,15.0,91,0.00,,,0.00,Wunderground v.1.15,2013-06-23 11:05:00,
2013-06-23 07:10:00,65.5,62.8,30.15,East,96,1.0,15.0,91,0.00,,,0.00,Wunderground v.1.15,2013-06-23 11:10:00,
2013-06-23 07:20:00,66.4,63.1,30.16,ESE,107,1.0,15.0,89,0.00,,,0.00,Wunderground v.1.15,2013-06-23 11:20:00,
2013-06-23 07:30:00,67.2,63.8,30.16,ESE,105,1.0,15.0,89,0.00,,,0.00,Wunderground v.1.15,2013-06-23 11:30:00,
2013-06-23 07:35:00,67.6,63.9,30.16,ESE,114,1.0,15.0,88,0.00,,,0.00,Wunderground v.1.15,2013-06-23 11:35:00,
2013-06-23 07:45:00,68.5,64.5,30.16,ESE,105,0.0,15.0,87,0.00,,,0.00,Wunderground v.1.15,2013-06-23 11:45:00,
2013-06-23 07:50:00,69.0,64.6,30.16,East,95,0.0,15.0,86,0.00,,,0.00,Wunderground v.1.15,2013-06-23 11:50:00,
2013-06-23 08:00:00,70.0,64.9,30.16,East,83,1.0,15.0,84,0.00,,,0.00,Wunderground v.1.15,2013-06-23 12:00:00,
2013-06-23 08:10:00,70.7,64.9,30.16,East,89,1.0,15.0,82,0.00,,,0.00,Wunderground v.1.15,2013-06-23 12:10:00,
2013-06-23 08:15:00,70.9,65.5,30.16,East,89,1.0,15.0,83,0.00,,,0.00,Wunderground v.1.15,2013-06-23 12:15:00,
2013-06-23 08:20:00,71.4,66.0,30.16,ESE,110,1.0,15.0,83,0.00,,,0.00,Wunderground v.1.15,2013-06-23 12:20:00,
2013-06-23 08:30:00,72.4,66.2,30.16,East,84,1.0,1.0,81,0.00,,,0.00,Wunderground v.1.15,2013-06-23 12:30:00,
2013-06-23 08:40:00,73.3,66.8,30.16,ENE,77,1.0,15.0,80,0.00,,,0.00,Wunderground v.1.15,2013-06-23 12:40:00,
2013-06-23 08:50:00,73.8,66.9,30.16,East,87,1.0,1.0,79,0.00,,,0.00,Wunderground v.1.15,2013-06-23 12:50:00,
2013-06-23 09:00:00,75.4,67.7,30.16,ENE,77,1.0,15.0,77,0.00,,,0.00,Wunderground v.1.15,2013-06-23 13:00:00,
2013-06-23 09:10:00,76.4,67.9,30.16,ESE,103,1.0,1.0,75,0.00,,,0.00,Wunderground v.1.15,2013-06-23 13:10:00,
2013-06-23 09:15:00,77.0,68.1,30.16,SE,132,1.0,15.0,74,0.00,,,0.00,Wunderground v.1.15,2013-06-23 13:15:00,
2013-06-23 09:20:00,76.9,67.6,30.16,East,84,1.0,15.0,73,0.00,,,0.00,Wunderground v.1.15,2013-06-23 13:20:00,
2013-06-23 09:35:00,77.8,68.8,30.15,South,169,1.0,15.0,74,0.00,,,0.00,Wunderground v.1.15,2013-06-23 13:35:00,
2013-06-23 09:40:00,79.0,69.2,30.15,South,177,1.0,1.0,72,0.00,,,0.00,Wunderground v.1.15,2013-06-23 13:40:00,
2013-06-23 09:50:00,79.7,69.0,30.15,SE,131,1.0,15.0,70,0.00,,,0.00,Wunderground v.1.15,2013-06-23 13:50:00,
2013-06-23 10:00:00,80.0,69.3,30.14,SE,124,1.0,1.0,70,0.00,,,0.00,Wunderground v.1.15,2013-06-23 14:00:00,
2013-06-23 10:10:00,80.6,69.1,30.14,SE,138,1.0,1.0,68,0.00,,,0.00,Wunderground v.1.15,2013-06-23 14:10:00,
2013-06-23 10:15:00,80.5,69.4,30.14,ESE,108,1.0,2.0,69,0.00,,,0.00,Wunderground v.1.15,2013-06-23 14:15:00,
2013-06-23 10:20:00,80.5,69.0,30.14,ESE,108,2.0,2.0,68,0.00,,,0.00,Wunderground v.1.15,2013-06-23 14:20:00,
2013-06-23 10:30:00,80.7,69.6,30.14,ESE,121,1.0,15.0,69,0.00,,,0.00,Wunderground v.1.15,2013-06-23 14:30:00,
2013-06-23 10:40:00,82.0,70.4,30.13,SSW,201,1.0,1.0,68,0.00,,,0.00,Wunderground v.1.15,2013-06-23 14:40:00,
2013-06-23 10:50:00,82.5,70.0,30.13,SE,141,1.0,15.0,66,0.00,,,0.00,Wunderground v.1.15,2013-06-23 14:50:00,
2013-06-23 11:00:00,83.4,69.5,30.13,ESE,103,1.0,15.0,63,0.00,,,0.00,Wunderground v.1.15,2013-06-23 15:00:00,
2013-06-23 11:10:00,84.2,70.7,30.13,East,87,1.0,15.0,64,0.00,,,0.00,Wunderground v.1.15,2013-06-23 15:10:00,
2013-06-23 11:20:00,84.0,69.6,30.13,SSE,165,1.0,15.0,62,0.00,,,0.00,Wunderground v.1.15,2013-06-23 15:20:00,
2013-06-23 11:30:00,84.6,70.6,30.12,WNW,288,1.0,1.0,63,0.00,,,0.00,Wunderground v.1.15,2013-06-23 15:30:00,
2013-06-23 11:35:00,84.5,70.5,30.12,East,85,1.0,15.0,63,0.00,,,0.00,Wunderground v.1.15,2013-06-23 15:35:00,
2013-06-23 11:45:00,85.5,70.0,30.13,ESE,102,1.0,15.0,60,0.00,,,0.00,Wunderground v.1.15,2013-06-23 15:45:00,
2013-06-23 11:55:00,85.6,69.6,30.12,SE,127,1.0,15.0,59,0.00,,,0.00,Wunderground v.1.15,2013-06-23 15:55:00,
2013-06-23 12:05:00,85.7,69.2,30.12,SSE,160,1.0,15.0,58,0.00,,,0.00,Wunderground v.1.15,2013-06-23 16:05:00,
2013-06-23 12:10:00,85.7,69.7,30.12,SSE,163,1.0,15.0,59,0.00,,,0.00,Wunderground v.1.15,2013-06-23 16:10:00,
2013-06-23 12:15:00,85.7,69.2,30.12,SW,217,1.0,15.0,58,0.00,,,0.00,Wunderground v.1.15,2013-06-23 16:15:00,
2013-06-23 12:25:00,86.2,69.2,30.12,SE,139,1.0,15.0,57,0.00,,,0.00,Wunderground v.1.15,2013-06-23 16:25:00,
2013-06-23 12:35:00,85.7,69.2,30.12,ESE,104,2.0,15.0,58,0.00,,,0.00,Wunderground v.1.15,2013-06-23 16:35:00,
2013-06-23 12:45:00,85.2,68.8,30.11,SSE,159,1.0,15.0,58,0.00,,,0.00,Wunderground v.1.15,2013-06-23 16:45:00,
2013-06-23 12:50:00,85.1,69.2,30.11,East,84,1.0,15.0,59,0.00,,,0.00,Wunderground v.1.15,2013-06-23 16:50:00,
2013-06-23 13:05:00,85.3,67.8,30.11,SSE,149,1.0,15.0,56,0.00,,,0.00,Wunderground v.1.15,2013-06-23 17:05:00,
2013-06-23 13:10:00,85.3,69.3,30.11,ENE,68,1.0,15.0,59,0.00,,,0.00,Wunderground v.1.15,2013-06-23 17:10:00,
2013-06-23 13:15:00,85.5,67.5,30.11,SE,124,1.0,15.0,55,0.00,,,0.00,Wunderground v.1.15,2013-06-23 17:15:00,
2013-06-23 13:25:00,85.4,67.9,30.10,SSW,207,1.0,15.0,56,0.00,,,0.00,Wunderground v.1.15,2013-06-23 17:25:00,
2013-06-23 13:30:00,85.6,68.6,30.10,SE,133,1.0,1.0,57,0.00,,,0.00,Wunderground v.1.15,2013-06-23 17:30:00,
2013-06-23 13:40:00,85.4,68.4,30.10,SE,144,1.0,1.0,57,0.00,,,0.00,Wunderground v.1.15,2013-06-23 17:40:00,
2013-06-23 13:50:00,85.6,68.1,30.09,South,189,1.0,15.0,56,0.00,,,0.00,Wunderground v.1.15,2013-06-23 17:50:00,
2013-06-23 14:00:00,85.3,67.8,30.09,North,351,2.0,2.0,56,0.00,,,0.00,Wunderground v.1.15,2013-06-23 18:00:00,
2013-06-23 14:05:00,85.4,68.9,30.09,SSW,210,1.0,15.0,58,0.00,,,0.00,Wunderground v.1.15,2013-06-23 18:05:00,
2013-06-23 14:10:00,85.2,68.8,30.09,NW,315,1.0,15.0,58,0.00,,,0.00,Wunderground v.1.15,2013-06-23 18:10:00,
2013-06-23 14:15:00,84.8,67.9,30.09,SSE,150,1.0,15.0,57,0.00,,,0.00,Wunderground v.1.15,2013-06-23 18:15:00,
2013-06-23 14:20:00,84.6,68.2,30.09,SSW,212,2.0,2.0,58,0.00,,,0.00,Wunderground v.1.15,2013-06-23 18:20:00,
2013-06-23 14:30:00,85.0,68.6,30.08,ESE,119,1.0,15.0,58,0.00,,,0.00,Wunderground v.1.15,2013-06-23 18:30:00,
2013-06-23 14:40:00,84.8,68.4,30.08,ENE,70,1.0,15.0,58,0.00,,,0.00,Wunderground v.1.15,2013-06-23 18:40:00,
2013-06-23 14:45:00,85.0,69.1,30.08,East,86,1.0,15.0,59,0.00,,,0.00,Wunderground v.1.15,2013-06-23 18:45:00,
2013-06-23 14:55:00,84.4,68.5,30.08,South,172,1.0,15.0,59,0.00,,,0.00,Wunderground v.1.15,2013-06-23 18:55:00,
2013-06-23 15:05:00,84.0,68.1,30.08,SE,127,2.0,15.0,59,0.00,,,0.00,Wunderground v.1.15,2013-06-23 19:05:00,
2013-06-23 15:10:00,83.7,68.3,30.08,South,180,2.0,2.0,60,0.00,,,0.00,Wunderground v.1.15,2013-06-23 19:10:00,
2013-06-23 15:15:00,83.6,68.2,30.08,WSW,255,2.0,4.0,60,0.00,,,0.00,Wunderground v.1.15,2013-06-23 19:15:00,
2013-06-23 15:25:00,83.2,67.9,30.07,SW,217,2.0,2.0,60,0.00,,,0.00,Wunderground v.1.15,2013-06-23 19:25:00,
2013-06-23 15:35:00,82.8,68.0,30.07,NE,37,1.0,15.0,61,0.00,,,0.00,Wunderground v.1.15,2013-06-23 19:35:00,
2013-06-23 15:45:00,82.2,68.3,30.07,WSW,237,2.0,15.0,63,0.00,,,0.00,Wunderground v.1.15,2013-06-23 19:45:00,
2013-06-23 15:50:00,82.1,68.7,30.07,ESE,114,2.0,15.0,64,0.00,,,0.00,Wunderground v.1.15,2013-06-23 19:50:00,
2013-06-23 16:00:00,81.3,68.9,30.07,SSE,148,2.0,2.0,66,0.00,,,0.00,Wunderground v.1.15,2013-06-23 20:00:00,
2013-06-23 16:11:00,80.9,69.3,30.07,SSE,153,2.0,2.0,68,0.00,,,0.00,Wunderground v.1.15,2013-06-23 20:11:00,
2013-06-23 16:20:00,80.8,69.7,30.06,East,89,2.0,15.0,69,0.00,,,0.00,Wunderground v.1.15,2013-06-23 20:20:00,
2013-06-23 16:25:00,80.8,69.7,30.06,SSE,163,2.0,15.0,69,0.00,,,0.00,Wunderground v.1.15,2013-06-23 20:25:00,
2013-06-23 16:35:00,80.9,70.6,30.06,NNE,24,1.0,15.0,71,0.00,,,0.00,Wunderground v.1.15,2013-06-23 20:35:00,
2013-06-23 16:40:00,80.9,70.2,30.06,SSW,194,1.0,15.0,70,0.00,,,0.00,Wunderground v.1.15,2013-06-23 20:40:00,
2013-06-23 16:50:00,80.5,70.2,30.06,ESE,108,1.0,1.0,71,0.00,,,0.00,Wunderground v.1.15,2013-06-23 20:50:00,
2013-06-23 17:00:00,80.2,69.9,30.06,ENE,63,1.0,1.0,71,0.00,,,0.00,Wunderground v.1.15,2013-06-23 21:00:00,
2013-06-23 17:10:00,80.0,69.7,30.06,ESE,120,1.0,15.0,71,0.00,,,0.00,Wunderground v.1.15,2013-06-23 21:10:00,
2013-06-23 17:15:00,79.9,70.1,30.05,SE,131,1.0,15.0,72,0.00,,,0.00,Wunderground v.1.15,2013-06-23 21:15:00,
2013-06-23 17:20:00,79.8,70.0,30.05,East,93,1.0,15.0,72,0.00,,,0.00,Wunderground v.1.15,2013-06-23 21:20:00,
2013-06-23 17:30:00,79.4,69.6,30.05,SSE,166,2.0,2.0,72,0.00,,,0.00,Wunderground v.1.15,2013-06-23 21:30:00,
2013-06-23 17:40:00,79.2,69.4,30.05,South,191,2.0,15.0,72,0.00,,,0.00,Wunderground v.1.15,2013-06-23 21:40:00,
2013-06-23 17:50:00,79.1,69.7,30.05,SSW,195,1.0,15.0,73,0.00,,,0.00,Wunderground v.1.15,2013-06-23 21:50:00,
2013-06-23 18:00:00,78.8,69.8,30.05,WSW,243,2.0,15.0,74,0.00,,,0.00,Wunderground v.1.15,2013-06-23 22:00:00,
2013-06-23 18:10:00,78.6,69.6,30.05,SSE,158,1.0,15.0,74,0.00,,,0.00,Wunderground v.1.15,2013-06-23 22:10:00,
2013-06-23 18:20:00,78.3,69.3,30.05,ESE,117,1.0,15.0,74,0.00,,,0.00,Wunderground v.1.15,2013-06-23 22:20:00,
2013-06-23 18:30:00,78.0,69.8,30.05,SE,130,2.0,15.0,76,0.00,,,0.00,Wunderground v.1.15,2013-06-23 22:30:00,
2013-06-23 18:40:00,77.8,70.0,30.05,East,84,1.0,15.0,77,0.00,,,0.00,Wunderground v.1.15,2013-06-23 22:40:00,
2013-06-23 18:50:00,77.5,70.1,30.05,East,86,1.0,1.0,78,0.00,,,0.00,Wunderground v.1.15,2013-06-23 22:50:00,
2013-06-23 19:00:00,77.2,69.8,30.05,North,32767,1.0,1.0,78,0.00,,,0.00,Wunderground v.1.15,2013-06-23 23:00:00,
2013-06-23 19:10:00,76.9,69.9,30.04,ESE,118,1.0,15.0,79,0.00,,,0.00,Wunderground v.1.15,2013-06-23 23:10:00,
2013-06-23 19:20:00,76.7,69.7,30.05,SE,132,0.0,15.0,79,0.00,,,0.00,Wunderground v.1.15,2013-06-23 23:20:00,
2013-06-23 19:30:00,76.4,69.8,30.05,SSW,211,0.0,15.0,80,0.00,,,0.00,Wunderground v.1.15,2013-06-23 23:30:00,
2013-06-23 19:35:00,76.3,70.0,30.04,South,173,0.0,15.0,81,0.00,,,0.00,Wunderground v.1.15,2013-06-23 23:35:00,
2013-06-23 19:45:00,76.0,69.7,30.05,SE,132,0.0,15.0,81,0.00,,,0.00,Wunderground v.1.15,2013-06-23 23:45:00,
2013-06-23 19:50:00,75.9,70.0,30.05,East,87,0.0,15.0,82,0.00,,,0.00,Wunderground v.1.15,2013-06-23 23:50:00,
2013-06-23 19:55:00,75.7,69.8,30.05,East,91,0.0,15.0,82,0.00,,,0.00,Wunderground v.1.15,2013-06-23 23:55:00,
2013-06-23 20:05:00,75.4,69.9,30.05,ESE,117,1.0,15.0,83,0.00,,,0.00,Wunderground v.1.15,2013-06-24 00:05:00,
2013-06-23 20:15:00,75.1,69.6,30.06,WNW,287,1.0,15.0,83,0.00,,,0.00,Wunderground v.1.15,2013-06-24 00:15:00,
2013-06-23 20:25:00,74.8,69.6,30.05,East,84,0.0,15.0,84,0.00,,,0.00,Wunderground v.1.15,2013-06-24 00:25:00,
2013-06-23 20:35:00,74.4,69.2,30.05,East,81,0.0,15.0,84,0.00,,,0.00,Wunderground v.1.15,2013-06-24 00:35:00,
2013-06-23 20:45:00,74.0,68.9,30.05,NE,48,0.0,15.0,84,0.00,,,0.00,Wunderground v.1.15,2013-06-24 00:45:00,
2013-06-23 20:55:00,73.7,68.9,30.05,NNW,332,0.0,15.0,85,0.00,,,0.00,Wunderground v.1.15,2013-06-24 00:55:00,
2013-06-23 21:05:00,73.4,68.6,30.06,NE,40,0.0,15.0,85,0.00,,,0.00,Wunderground v.1.15,2013-06-24 01:05:00,
2013-06-23 21:10:00,73.3,68.9,30.06,ESE,104,0.0,15.0,86,0.00,,,0.00,Wunderground v.1.15,2013-06-24 01:10:00,
2013-06-23 21:20:00,73.0,68.6,30.06,East,82,0.0,15.0,86,0.00,,,0.00,Wunderground v.1.15,2013-06-24 01:20:00,
2013-06-23 21:30:00,72.7,68.6,30.06,East,85,0.0,15.0,87,0.00,,,0.00,Wunderground v.1.15,2013-06-24 01:30:00,
2013-06-23 21:40:00,72.4,68.6,30.07,East,79,0.0,15.0,88,0.00,,,0.00,Wunderground v.1.15,2013-06-24 01:40:00,
2013-06-23 21:50:00,72.2,68.8,30.07,East,100,0.0,15.0,89,0.00,,,0.00,Wunderground v.1.15,2013-06-24 01:50:00,
2013-06-23 22:00:00,71.9,68.5,30.07,ENE,69,0.0,15.0,89,0.00,,,0.00,Wunderground v.1.15,2013-06-24 02:00:00,
2013-06-23 22:10:00,71.6,68.5,30.07,ENE,74,0.0,15.0,90,0.00,,,0.00,Wunderground v.1.15,2013-06-24 02:10:00,
2013-06-23 22:20:00,71.4,68.6,30.07,East,92,0.0,15.0,91,0.00,,,0.00,Wunderground v.1.15,2013-06-24 02:20:00,
2013-06-23 22:25:00,71.3,68.5,30.07,East,79,0.0,15.0,91,0.00,,,0.00,Wunderground v.1.15,2013-06-24 02:25:00,
2013-06-23 22:40:00,71.0,68.6,30.07,East,84,0.0,15.0,92,0.00,,,0.00,Wunderground v.1.15,2013-06-24 02:40:00,
2013-06-23 22:45:00,70.9,68.5,30.07,East,90,0.0,15.0,92,0.00,,,0.00,Wunderground v.1.15,2013-06-24 02:45:00,
2013-06-23 22:55:00,70.8,68.7,30.07,ESE,121,0.0,15.0,93,0.00,,,0.00,Wunderground v.1.15,2013-06-24 02:55:00,
2013-06-23 23:05:00,70.7,68.6,30.06,East,100,0.0,15.0,93,0.00,,,0.00,Wunderground v.1.15,2013-06-24 03:05:00,
2013-06-23 23:15:00,70.7,68.9,30.06,East,100,0.0,15.0,94,0.00,,,0.00,Wunderground v.1.15,2013-06-24 03:15:00,
2013-06-23 23:25:00,70.8,69.0,30.05,East,100,0.0,15.0,94,0.00,,,0.00,Wunderground v.1.15,2013-06-24 03:25:00,
2013-06-23 23:35:00,71.0,69.2,30.05,SE,138,0.0,15.0,94,0.00,,,0.00,Wunderground v.1.15,2013-06-24 03:35:00,
2013-06-23 23:45:00,71.1,69.3,30.05,East,91,0.0,15.0,94,0.00,,,0.00,Wunderground v.1.15,2013-06-24 03:45:00,
2013-06-23 23:55:00,71.2,69.4,30.05,East,101,0.0,15.0,94,0.00,,,0.00,Wunderground v.1.15,2013-06-24 03:55:00,